Kezdőlap
METAR-TAF:

METAR-TAF

Repülőterek :

Algír, Algéria

földrajzi szélesség: 36-43N, földrajzi hosszúság: 003-15E, magasság: 25 m

Jelenlegi meteorológiai megfigyelések

A jelentés 27 perccel ezelõtt készült, 09:30 UTC
Dél-délnyugati szél 5 kt
Hőmérséklet 16°C
Páratartalom 63%
Légköri nyomás 1027 hPa
Látótávolság 10 km, vagy több
felhőtlen 1500 m magasságban, és nincs gomolyfelhõ

METAR: DAAG 220930Z 20005KT CAVOK 16/09 Q1027

Idő: 10:57 (09:57 UTC)

Előrejelzés

A jelentés 4 órával és 57 perccel ezelõtt készült, 05:00 UTC
Az előrejelzés 22-én 06 óra UTC és 23-én 06 óra UTC között érvényes
Különbözõ irányokból fújó szél 2 kt
Látótávolság 10 km, vagy több
felhőtlen 1500 m magasságban, és nincs gomolyfelhõ
22-én 10 óra UTC és 22-én 14 óra UTC között ideiglenes
Nyugat-északnyugati szél 10 kt

TAF: DAAG 220500Z 2206/2306 VRB02KT CAVOK TEMPO 2210/2214 30010KT

Meteorológiai megfigyelések és előrejelzések több, mint 4000 repülőtéren (METAR és TAF jelentéseket).

A térképen piros és sárga pontok jelzik az elérhető meteorológiai állomásokat.

Mozgassa az egeret a pont fölött, hogy megjelenjen az állomás neve.

Azután kattintson az időjárási megfigyelések és előrejelzések megtekintéséhez.

A térkép megváltoztatása: kattintson a fekete keresztel jelölt zöld gombra ráközelítéshez, a vonallal jelölt zöld gombra távolításhoz, vagy a zöld nyilakra a szomszédos térképek eléréséhez.


METAR-TAF: